»·PEaware :: WAT352 KRNO-KRDD

WAT352 :: KRNO-KRDD

FLIGHT INFORMATION

Flight Status: Arrived
Operator:
Walker Air Transport
More flights by this operator :: More flights under this callsign
Pilot: Matthew M. (27032)
Aircraft: BEECH AIRCRAFT SUPER KING AIR 350
(B350)
More flights by this aircraft type
Origin: KRNO Reno/Tahoe Intl
United States
Destination: KRDD Redding Mun
United States
More flights between these airports :: More routes between these airports
Route: +FMG8 FMG V200 MRGGO V332 RBL
File this flight plan on PilotEdge
Remarks:
Altitude:
(Current/Filed)
16,000ft
Speed:
(Current/Filed)
300kts
Departed: 27-Oct-20 07:59 AM
Arrived: 27-Oct-20 08:49 AM
Distance/Time
Traveled:
131nm/0:50
Distance/Time
To Go:
Arrived

Flight Plot

Page will automatically refresh every two minutes.

Flight plan parsing failed; only flown route is shown


Map Options




Map Legend


Flown Route
Filed Route
Departure Airport
Arrival Airport
Navaid (VOR, NDB)
Fix

Horizontal Profiles

Position Reports

Time Latitude Longitude Heading Altitude Ground
Speed
27-Oct-20 07:24 39.499029 -119.764771 270 4420ft 0kts
27-Oct-20 07:25 39.499029 -119.764771 270 4420ft 0kts
27-Oct-20 07:26 39.499029 -119.764771 270 4420ft 0kts
27-Oct-20 07:27 39.499029 -119.764771 270 4420ft 0kts
27-Oct-20 07:28 39.499029 -119.764771 270 4420ft 0kts
27-Oct-20 07:29 39.499029 -119.764771 270 4420ft 0kts
27-Oct-20 07:30 39.499029 -119.764771 270 4420ft 0kts
27-Oct-20 07:31 39.499029 -119.764771 270 4420ft 0kts
27-Oct-20 07:32 39.499029 -119.764771 270 4420ft 0kts
27-Oct-20 07:33 39.499029 -119.764771 270 4420ft 0kts
27-Oct-20 07:34 39.499029 -119.764771 270 4420ft 0kts
27-Oct-20 07:35 39.499029 -119.764771 270 4420ft 0kts
27-Oct-20 07:36 39.499029 -119.764771 270 4420ft 0kts
27-Oct-20 07:37 39.499029 -119.764771 270 4420ft 0kts
27-Oct-20 07:38 39.499029 -119.764771 270 4420ft 0kts
27-Oct-20 07:39 39.499029 -119.764771 270 4420ft 0kts
27-Oct-20 07:40 39.499029 -119.764771 270 4420ft 0kts
27-Oct-20 07:41 39.499029 -119.764771 270 4420ft 0kts
27-Oct-20 07:42 39.499029 -119.764771 270 4420ft 0kts
27-Oct-20 07:43 39.499029 -119.764771 270 4420ft 0kts
27-Oct-20 07:44 39.499029 -119.764771 270 4420ft 0kts
27-Oct-20 07:45 39.499029 -119.764771 270 4420ft 0kts
27-Oct-20 07:46 39.499029 -119.764771 270 4420ft 0kts
27-Oct-20 07:47 39.499029 -119.764771 270 4420ft 0kts
27-Oct-20 07:48 39.500846 -119.765343 291 4420ft 12kts
27-Oct-20 07:49 39.506845 -119.765719 357 4420ft 27kts
27-Oct-20 07:50 39.512769 -119.765147 0 4420ft 23kts
27-Oct-20 07:51 39.513770 -119.765625 287 4420ft 0kts
27-Oct-20 07:52 39.513770 -119.765625 288 4420ft 0kts
27-Oct-20 07:53 39.513770 -119.765625 287 4420ft 0kts
27-Oct-20 07:54 39.513770 -119.765625 287 4420ft 0kts
27-Oct-20 07:55 39.513770 -119.765624 287 4420ft 0kts
27-Oct-20 07:56 39.513770 -119.765624 287 4420ft 0kts
27-Oct-20 07:57 39.513775 -119.765746 269 4420ft 7kts
27-Oct-20 07:58 39.492398 -119.767779 192 5113ft 143kts
27-Oct-20 07:59 39.446282 -119.770084 185 7244ft 178kts
27-Oct-20 08:00 39.408863 -119.751886 86 9774ft 162kts
27-Oct-20 08:01 39.438451 -119.724142 23 12380ft 127kts
27-Oct-20 08:02 39.469407 -119.701619 32 14284ft 135kts
27-Oct-20 08:03 39.503143 -119.676246 27 15924ft 148kts
27-Oct-20 08:04 39.548518 -119.644102 24 16108ft 216kts
27-Oct-20 08:05 39.608308 -119.646148 315 16000ft 271kts
27-Oct-20 08:06 39.594125 -119.744515 234 16020ft 326kts
27-Oct-20 08:07 39.527314 -119.826355 223 16001ft 333kts
27-Oct-20 08:08 39.485868 -119.926644 261 15999ft 319kts
27-Oct-20 08:09 39.465267 -120.038372 262 16001ft 319kts
27-Oct-20 08:10 39.445569 -120.150254 263 16001ft 318kts
27-Oct-20 08:11 39.425856 -120.262066 263 16002ft 318kts
27-Oct-20 08:12 39.406022 -120.373178 262 16003ft 318kts
27-Oct-20 08:13 39.386679 -120.484819 277 15969ft 310kts
27-Oct-20 08:14 39.422479 -120.577085 304 16008ft 292kts
27-Oct-20 08:15 39.460051 -120.669895 303 16000ft 292kts
27-Oct-20 08:16 39.498287 -120.762862 304 16000ft 291kts
27-Oct-20 08:17 39.536726 -120.855202 304 15999ft 291kts
27-Oct-20 08:18 39.575115 -120.947388 304 16000ft 291kts
27-Oct-20 08:19 39.613582 -121.040057 304 15940ft 292kts
27-Oct-20 08:20 39.652042 -121.133180 304 15860ft 292kts
27-Oct-20 08:21 39.690377 -121.226213 304 15789ft 292kts
27-Oct-20 08:22 39.729356 -121.321066 304 14689ft 300kts
27-Oct-20 08:23 39.768264 -121.416027 304 13183ft 297kts
27-Oct-20 08:24 39.807111 -121.511122 304 11674ft 295kts
27-Oct-20 08:25 39.845169 -121.604546 303 10160ft 289kts
27-Oct-20 08:26 39.881484 -121.694769 300 9025ft 281kts
27-Oct-20 08:27 39.917658 -121.784545 300 7510ft 272kts
27-Oct-20 08:28 39.952057 -121.869703 299 5987ft 261kts
27-Oct-20 08:29 39.985318 -121.952405 299 5303ft 258kts
27-Oct-20 08:30 40.018847 -122.036017 299 5298ft 260kts
27-Oct-20 08:31 40.052394 -122.119870 299 5297ft 260kts
27-Oct-20 08:32 40.085861 -122.203802 299 5298ft 260kts
27-Oct-20 08:33 40.122234 -122.284944 325 5273ft 257kts
27-Oct-20 08:34 40.191523 -122.284061 9 4532ft 252kts
27-Oct-20 08:35 40.256515 -122.269635 9 3086ft 228kts
27-Oct-20 08:36 40.323209 -122.268079 354 3100ft 252kts
27-Oct-20 08:37 40.393360 -122.277188 355 3091ft 253kts
27-Oct-20 08:38 40.459933 -122.285714 356 3061ft 204kts
27-Oct-20 08:39 40.499409 -122.309043 271 3079ft 165kts
27-Oct-20 08:41 40.463681 -122.316288 143 3112ft 179kts
27-Oct-20 08:42 40.418646 -122.323570 233 2589ft 190kts
27-Oct-20 08:43 40.386101 -122.372575 198 2560ft 174kts
27-Oct-20 08:44 40.372296 -122.336631 28 2584ft 156kts
27-Oct-20 08:45 40.414895 -122.320605 14 1855ft 156kts
27-Oct-20 08:46 40.450736 -122.308628 12 1554ft 125kts
27-Oct-20 08:47 40.479616 -122.297645 17 946ft 103kts
27-Oct-20 08:48 40.506187 -122.294851 0 462ft 69kts
27-Oct-20 08:49 40.514212 -122.295420 264 462ft 17kts
27-Oct-20 08:50 40.509725 -122.296310 181 462ft 23kts
27-Oct-20 08:51 40.508821 -122.299288 1 462ft 6kts
27-Oct-20 08:52 40.508846 -122.299287 1 462ft 0kts
27-Oct-20 08:53 40.508845 -122.299287 1 462ft 0kts
27-Oct-20 08:54 40.508845 -122.299287 1 462ft 0kts
27-Oct-20 08:55 40.508845 -122.299287 1 462ft 0kts
27-Oct-20 08:55 40.508845 -122.299287 1 462ft 0kts
27-Oct-20 08:57 40.508845 -122.299287 1 462ft 0kts
27-Oct-20 08:57 40.508845 -122.299287 1 462ft 0kts
27-Oct-20 08:58 40.508845 -122.299287 1 462ft 0kts
27-Oct-20 09:00 40.508845 -122.299287 1 462ft 0kts
27-Oct-20 09:00 40.508845 -122.299287 1 462ft 0kts
27-Oct-20 09:02 40.508845 -122.299287 1 462ft 0kts
27-Oct-20 09:02 40.508845 -122.299287 1 462ft 0kts

Navigation Log

Ident Type
Flight plan parsing failed, navigation log unavailable